sensor_id;sensor_type;location;lat;lon;timestamp;temperature;humidity
5134;DHT22;2585;48.696;10.066;2023-11-21T00:02:26;6.30;90.00
5134;DHT22;2585;48.696;10.066;2023-11-21T00:04:56;6.30;90.00
5134;DHT22;2585;48.696;10.066;2023-11-21T00:07:23;6.30;90.10
5134;DHT22;2585;48.696;10.066;2023-11-21T00:09:50;6.30;90.10
5134;DHT22;2585;48.696;10.066;2023-11-21T00:12:17;6.30;90.10
5134;DHT22;2585;48.696;10.066;2023-11-21T00:14:44;6.30;90.10
5134;DHT22;2585;48.696;10.066;2023-11-21T00:17:11;6.30;90.10
5134;DHT22;2585;48.696;10.066;2023-11-21T00:19:38;6.30;90.20
5134;DHT22;2585;48.696;10.066;2023-11-21T00:22:05;6.30;90.20
5134;DHT22;2585;48.696;10.066;2023-11-21T00:24:34;6.30;90.20
5134;DHT22;2585;48.696;10.066;2023-11-21T00:27:01;6.30;90.20
5134;DHT22;2585;48.696;10.066;2023-11-21T00:29:28;6.30;90.20
5134;DHT22;2585;48.696;10.066;2023-11-21T00:31:54;6.30;90.30
5134;DHT22;2585;48.696;10.066;2023-11-21T00:34:21;6.30;90.30
5134;DHT22;2585;48.696;10.066;2023-11-21T00:36:48;6.20;90.30
5134;DHT22;2585;48.696;10.066;2023-11-21T00:39:15;6.30;90.30
5134;DHT22;2585;48.696;10.066;2023-11-21T00:41:42;6.30;90.40
5134;DHT22;2585;48.696;10.066;2023-11-21T00:44:09;6.30;90.40
5134;DHT22;2585;48.696;10.066;2023-11-21T00:46:36;6.30;90.40
5134;DHT22;2585;48.696;10.066;2023-11-21T00:49:03;6.30;90.40
5134;DHT22;2585;48.696;10.066;2023-11-21T00:51:34;6.20;90.40
5134;DHT22;2585;48.696;10.066;2023-11-21T00:54:01;6.20;90.40
5134;DHT22;2585;48.696;10.066;2023-11-21T00:56:28;6.20;90.40
5134;DHT22;2585;48.696;10.066;2023-11-21T00:58:55;6.20;90.50
5134;DHT22;2585;48.696;10.066;2023-11-21T01:01:22;6.20;90.50
5134;DHT22;2585;48.696;10.066;2023-11-21T01:03:50;6.20;90.50
5134;DHT22;2585;48.696;10.066;2023-11-21T01:06:17;6.20;90.50
5134;DHT22;2585;48.696;10.066;2023-11-21T01:08:44;6.20;90.50
5134;DHT22;2585;48.696;10.066;2023-11-21T01:11:11;6.20;90.50
5134;DHT22;2585;48.696;10.066;2023-11-21T01:13:42;6.20;90.50
5134;DHT22;2585;48.696;10.066;2023-11-21T01:16:09;6.20;90.50
5134;DHT22;2585;48.696;10.066;2023-11-21T01:18:36;6.20;90.50
5134;DHT22;2585;48.696;10.066;2023-11-21T01:21:03;6.20;90.60
5134;DHT22;2585;48.696;10.066;2023-11-21T01:23:30;6.20;90.60
5134;DHT22;2585;48.696;10.066;2023-11-21T01:25:57;6.20;90.60
5134;DHT22;2585;48.696;10.066;2023-11-21T01:28:24;6.20;90.60
5134;DHT22;2585;48.696;10.066;2023-11-21T01:30:51;6.20;90.60
5134;DHT22;2585;48.696;10.066;2023-11-21T01:33:18;6.20;90.60
5134;DHT22;2585;48.696;10.066;2023-11-21T01:35:45;6.20;90.60
5134;DHT22;2585;48.696;10.066;2023-11-21T01:38:13;6.20;90.60
5134;DHT22;2585;48.696;10.066;2023-11-21T01:40:41;6.20;90.60
5134;DHT22;2585;48.696;10.066;2023-11-21T01:43:08;6.10;95.30
5134;DHT22;2585;48.696;10.066;2023-11-21T01:45:35;6.10;95.30
5134;DHT22;2585;48.696;10.066;2023-11-21T01:48:03;6.10;95.30
5134;DHT22;2585;48.696;10.066;2023-11-21T01:50:30;6.10;95.30
5134;DHT22;2585;48.696;10.066;2023-11-21T01:52:58;6.20;90.70
5134;DHT22;2585;48.696;10.066;2023-11-21T01:55:24;6.20;90.70
5134;DHT22;2585;48.696;10.066;2023-11-21T01:57:55;6.20;90.70
5134;DHT22;2585;48.696;10.066;2023-11-21T02:00:24;6.20;90.70
5134;DHT22;2585;48.696;10.066;2023-11-21T02:02:52;6.20;90.70
5134;DHT22;2585;48.696;10.066;2023-11-21T02:05:19;6.20;90.70
5134;DHT22;2585;48.696;10.066;2023-11-21T02:07:48;6.10;95.30
5134;DHT22;2585;48.696;10.066;2023-11-21T02:10:16;6.20;90.70
5134;DHT22;2585;48.696;10.066;2023-11-21T02:12:43;6.20;90.70
5134;DHT22;2585;48.696;10.066;2023-11-21T02:15:13;6.20;90.70
5134;DHT22;2585;48.696;10.066;2023-11-21T02:17:53;6.20;90.70
5134;DHT22;2585;48.696;10.066;2023-11-21T02:20:22;6.20;90.70
5134;DHT22;2585;48.696;10.066;2023-11-21T02:22:53;6.20;90.70
5134;DHT22;2585;48.696;10.066;2023-11-21T02:25:28;6.10;95.40
5134;DHT22;2585;48.696;10.066;2023-11-21T02:27:56;6.20;90.80
5134;DHT22;2585;48.696;10.066;2023-11-21T02:30:23;6.10;95.40
5134;DHT22;2585;48.696;10.066;2023-11-21T02:32:52;6.10;95.40
5134;DHT22;2585;48.696;10.066;2023-11-21T02:35:24;6.10;95.40
5134;DHT22;2585;48.696;10.066;2023-11-21T02:37:53;6.10;95.40
5134;DHT22;2585;48.696;10.066;2023-11-21T02:40:20;6.10;95.40
5134;DHT22;2585;48.696;10.066;2023-11-21T02:42:48;6.10;95.40
5134;DHT22;2585;48.696;10.066;2023-11-21T02:45:15;6.10;95.50
5134;DHT22;2585;48.696;10.066;2023-11-21T02:47:45;6.10;95.50
5134;DHT22;2585;48.696;10.066;2023-11-21T02:50:12;6.20;90.80
5134;DHT22;2585;48.696;10.066;2023-11-21T02:52:39;6.20;90.80
5134;DHT22;2585;48.696;10.066;2023-11-21T02:55:09;6.20;90.80
5134;DHT22;2585;48.696;10.066;2023-11-21T02:57:36;6.20;90.80
5134;DHT22;2585;48.696;10.066;2023-11-21T03:00:03;6.20;90.90
5134;DHT22;2585;48.696;10.066;2023-11-21T03:02:34;6.20;90.90
5134;DHT22;2585;48.696;10.066;2023-11-21T03:05:07;6.20;90.90
5134;DHT22;2585;48.696;10.066;2023-11-21T03:07:39;6.20;90.90
5134;DHT22;2585;48.696;10.066;2023-11-21T03:10:08;6.20;90.90
5134;DHT22;2585;48.696;10.066;2023-11-21T03:12:38;6.10;95.50
5134;DHT22;2585;48.696;10.066;2023-11-21T03:15:06;6.00;95.50
5134;DHT22;2585;48.696;10.066;2023-11-21T03:17:33;6.00;95.50
5134;DHT22;2585;48.696;10.066;2023-11-21T03:20:00;6.00;95.50
5134;DHT22;2585;48.696;10.066;2023-11-21T03:22:27;6.10;95.50
5134;DHT22;2585;48.696;10.066;2023-11-21T03:24:54;6.10;95.50
5134;DHT22;2585;48.696;10.066;2023-11-21T03:27:21;6.10;95.50
5134;DHT22;2585;48.696;10.066;2023-11-21T03:29:48;6.20;90.90
5134;DHT22;2585;48.696;10.066;2023-11-21T03:32:16;6.10;95.50
5134;DHT22;2585;48.696;10.066;2023-11-21T03:35:09;6.10;95.50
5134;DHT22;2585;48.696;10.066;2023-11-21T03:37:36;6.20;90.90
5134;DHT22;2585;48.696;10.066;2023-11-21T03:40:05;6.20;90.90
5134;DHT22;2585;48.696;10.066;2023-11-21T03:42:34;6.20;90.90
5134;DHT22;2585;48.696;10.066;2023-11-21T03:45:01;6.20;90.90
5134;DHT22;2585;48.696;10.066;2023-11-21T03:47:30;6.20;90.90
5134;DHT22;2585;48.696;10.066;2023-11-21T03:49:57;6.20;90.90
5134;DHT22;2585;48.696;10.066;2023-11-21T03:52:24;6.20;90.90
5134;DHT22;2585;48.696;10.066;2023-11-21T03:54:51;6.10;95.50
5134;DHT22;2585;48.696;10.066;2023-11-21T03:57:18;6.20;90.90
5134;DHT22;2585;48.696;10.066;2023-11-21T03:59:45;6.10;95.50
5134;DHT22;2585;48.696;10.066;2023-11-21T04:02:12;6.10;95.50
5134;DHT22;2585;48.696;10.066;2023-11-21T04:04:39;6.10;95.60
5134;DHT22;2585;48.696;10.066;2023-11-21T04:07:06;6.10;95.60
5134;DHT22;2585;48.696;10.066;2023-11-21T04:09:33;6.10;95.60
5134;DHT22;2585;48.696;10.066;2023-11-21T04:11:59;6.10;95.60
5134;DHT22;2585;48.696;10.066;2023-11-21T04:14:26;6.10;95.60
5134;DHT22;2585;48.696;10.066;2023-11-21T04:16:53;6.20;90.90
5134;DHT22;2585;48.696;10.066;2023-11-21T04:19:20;6.20;91.00
5134;DHT22;2585;48.696;10.066;2023-11-21T04:21:47;6.10;95.60
5134;DHT22;2585;48.696;10.066;2023-11-21T04:24:14;6.20;91.00
5134;DHT22;2585;48.696;10.066;2023-11-21T04:26:41;6.20;91.00
5134;DHT22;2585;48.696;10.066;2023-11-21T04:29:08;6.20;91.00
5134;DHT22;2585;48.696;10.066;2023-11-21T04:31:35;6.20;91.00
5134;DHT22;2585;48.696;10.066;2023-11-21T04:34:02;6.20;91.00
5134;DHT22;2585;48.696;10.066;2023-11-21T04:36:30;6.20;91.00
5134;DHT22;2585;48.696;10.066;2023-11-21T04:38:58;6.10;95.60
5134;DHT22;2585;48.696;10.066;2023-11-21T04:41:25;6.20;91.00
5134;DHT22;2585;48.696;10.066;2023-11-21T04:43:51;6.20;91.00
5134;DHT22;2585;48.696;10.066;2023-11-21T04:46:18;6.20;91.00
5134;DHT22;2585;48.696;10.066;2023-11-21T04:48:45;6.20;91.00
5134;DHT22;2585;48.696;10.066;2023-11-21T04:51:12;6.20;91.00
5134;DHT22;2585;48.696;10.066;2023-11-21T04:53:39;6.20;91.00
5134;DHT22;2585;48.696;10.066;2023-11-21T04:56:06;6.20;91.00
5134;DHT22;2585;48.696;10.066;2023-11-21T04:58:33;6.20;91.00
5134;DHT22;2585;48.696;10.066;2023-11-21T05:01:00;6.20;91.00
5134;DHT22;2585;48.696;10.066;2023-11-21T05:03:27;6.20;91.00
5134;DHT22;2585;48.696;10.066;2023-11-21T05:05:56;6.20;91.00
5134;DHT22;2585;48.696;10.066;2023-11-21T05:08:23;6.10;95.60
5134;DHT22;2585;48.696;10.066;2023-11-21T05:10:50;6.10;95.60
5134;DHT22;2585;48.696;10.066;2023-11-21T05:13:18;6.10;95.60
5134;DHT22;2585;48.696;10.066;2023-11-21T05:15:46;6.10;95.60
5134;DHT22;2585;48.696;10.066;2023-11-21T05:18:13;6.10;95.60
5134;DHT22;2585;48.696;10.066;2023-11-21T05:20:43;6.10;95.60
5134;DHT22;2585;48.696;10.066;2023-11-21T05:23:10;6.10;95.60
5134;DHT22;2585;48.696;10.066;2023-11-21T05:25:36;6.10;95.60
5134;DHT22;2585;48.696;10.066;2023-11-21T05:28:06;6.10;95.60
5134;DHT22;2585;48.696;10.066;2023-11-21T05:30:33;6.10;95.60
5134;DHT22;2585;48.696;10.066;2023-11-21T05:33:00;6.10;95.60
5134;DHT22;2585;48.696;10.066;2023-11-21T05:35:27;6.10;95.60
5134;DHT22;2585;48.696;10.066;2023-11-21T05:37:54;6.10;95.60
5134;DHT22;2585;48.696;10.066;2023-11-21T05:40:21;6.10;95.60
5134;DHT22;2585;48.696;10.066;2023-11-21T05:42:49;6.10;95.60
5134;DHT22;2585;48.696;10.066;2023-11-21T05:45:18;6.10;95.60
5134;DHT22;2585;48.696;10.066;2023-11-21T05:47:46;6.10;95.70
5134;DHT22;2585;48.696;10.066;2023-11-21T05:50:15;6.10;95.70
5134;DHT22;2585;48.696;10.066;2023-11-21T05:52:46;6.10;95.70
5134;DHT22;2585;48.696;10.066;2023-11-21T05:55:14;6.10;95.70
5134;DHT22;2585;48.696;10.066;2023-11-21T05:57:42;6.10;95.70
5134;DHT22;2585;48.696;10.066;2023-11-21T06:00:12;6.10;95.70
5134;DHT22;2585;48.696;10.066;2023-11-21T06:02:46;6.10;95.70
5134;DHT22;2585;48.696;10.066;2023-11-21T06:05:13;6.10;95.70
5134;DHT22;2585;48.696;10.066;2023-11-21T06:07:40;6.10;95.70
5134;DHT22;2585;48.696;10.066;2023-11-21T06:10:08;6.10;95.70
5134;DHT22;2585;48.696;10.066;2023-11-21T06:12:37;6.10;95.70
5134;DHT22;2585;48.696;10.066;2023-11-21T06:15:05;6.10;95.70
5134;DHT22;2585;48.696;10.066;2023-11-21T06:17:34;6.10;95.70
5134;DHT22;2585;48.696;10.066;2023-11-21T06:20:07;6.10;95.70
5134;DHT22;2585;48.696;10.066;2023-11-21T06:22:42;6.10;95.70
5134;DHT22;2585;48.696;10.066;2023-11-21T06:25:12;6.10;95.70
5134;DHT22;2585;48.696;10.066;2023-11-21T06:27:44;6.10;95.70
5134;DHT22;2585;48.696;10.066;2023-11-21T06:30:12;6.10;95.70
5134;DHT22;2585;48.696;10.066;2023-11-21T06:32:40;6.10;95.70
5134;DHT22;2585;48.696;10.066;2023-11-21T06:35:08;6.10;95.70
5134;DHT22;2585;48.696;10.066;2023-11-21T06:37:37;6.10;95.70
5134;DHT22;2585;48.696;10.066;2023-11-21T06:40:05;6.10;95.70
5134;DHT22;2585;48.696;10.066;2023-11-21T06:42:33;6.10;95.70
5134;DHT22;2585;48.696;10.066;2023-11-21T06:45:05;6.00;95.60
5134;DHT22;2585;48.696;10.066;2023-11-21T06:47:32;6.10;95.70
5134;DHT22;2585;48.696;10.066;2023-11-21T06:49:59;6.10;95.70
5134;DHT22;2585;48.696;10.066;2023-11-21T06:52:27;6.10;95.70
5134;DHT22;2585;48.696;10.066;2023-11-21T06:54:54;6.10;95.70
5134;DHT22;2585;48.696;10.066;2023-11-21T06:57:23;6.10;95.70
5134;DHT22;2585;48.696;10.066;2023-11-21T06:59:50;6.20;91.00
5134;DHT22;2585;48.696;10.066;2023-11-21T07:02:17;6.20;91.00
5134;DHT22;2585;48.696;10.066;2023-11-21T07:04:45;6.20;91.00
5134;DHT22;2585;48.696;10.066;2023-11-21T07:07:13;6.10;95.70
5134;DHT22;2585;48.696;10.066;2023-11-21T07:09:39;6.20;91.00
5134;DHT22;2585;48.696;10.066;2023-11-21T07:12:07;6.30;91.10
5134;DHT22;2585;48.696;10.066;2023-11-21T07:14:34;6.30;91.10
5134;DHT22;2585;48.696;10.066;2023-11-21T07:17:01;6.30;91.10
5134;DHT22;2585;48.696;10.066;2023-11-21T07:19:28;6.30;91.00
5134;DHT22;2585;48.696;10.066;2023-11-21T07:21:55;6.40;91.10
5134;DHT22;2585;48.696;10.066;2023-11-21T07:24:22;6.40;91.10
5134;DHT22;2585;48.696;10.066;2023-11-21T07:26:53;6.40;91.10
5134;DHT22;2585;48.696;10.066;2023-11-21T07:29:24;6.40;91.10
5134;DHT22;2585;48.696;10.066;2023-11-21T07:31:56;6.40;91.10
5134;DHT22;2585;48.696;10.066;2023-11-21T07:34:23;6.40;91.10
5134;DHT22;2585;48.696;10.066;2023-11-21T07:36:50;6.40;91.10
5134;DHT22;2585;48.696;10.066;2023-11-21T07:39:17;6.50;91.10
5134;DHT22;2585;48.696;10.066;2023-11-21T07:41:44;6.40;91.10
5134;DHT22;2585;48.696;10.066;2023-11-21T07:44:18;6.40;91.10
5134;DHT22;2585;48.696;10.066;2023-11-21T07:46:47;6.40;91.10
5134;DHT22;2585;48.696;10.066;2023-11-21T07:49:16;6.50;91.10
5134;DHT22;2585;48.696;10.066;2023-11-21T07:51:47;6.60;91.10
5134;DHT22;2585;48.696;10.066;2023-11-21T07:54:13;6.60;91.10
5134;DHT22;2585;48.696;10.066;2023-11-21T07:56:40;6.50;91.10
5134;DHT22;2585;48.696;10.066;2023-11-21T07:59:07;6.50;91.10
5134;DHT22;2585;48.696;10.066;2023-11-21T08:01:34;6.60;91.10
5134;DHT22;2585;48.696;10.066;2023-11-21T08:04:01;6.50;91.10
5134;DHT22;2585;48.696;10.066;2023-11-21T08:06:30;6.50;91.10
5134;DHT22;2585;48.696;10.066;2023-11-21T08:08:58;6.50;91.10
5134;DHT22;2585;48.696;10.066;2023-11-21T08:11:25;6.50;91.10
5134;DHT22;2585;48.696;10.066;2023-11-21T08:13:53;6.50;91.10
5134;DHT22;2585;48.696;10.066;2023-11-21T08:16:21;6.60;91.20
5134;DHT22;2585;48.696;10.066;2023-11-21T08:18:48;6.60;91.20
5134;DHT22;2585;48.696;10.066;2023-11-21T08:21:14;6.50;91.10
5134;DHT22;2585;48.696;10.066;2023-11-21T08:23:41;6.60;91.20
5134;DHT22;2585;48.696;10.066;2023-11-21T08:26:08;6.60;91.20
5134;DHT22;2585;48.696;10.066;2023-11-21T08:28:35;6.60;91.20
5134;DHT22;2585;48.696;10.066;2023-11-21T08:31:02;6.70;91.20
5134;DHT22;2585;48.696;10.066;2023-11-21T08:33:31;6.60;91.20
5134;DHT22;2585;48.696;10.066;2023-11-21T08:35:57;6.60;91.20
5134;DHT22;2585;48.696;10.066;2023-11-21T08:38:24;6.60;91.20
5134;DHT22;2585;48.696;10.066;2023-11-21T08:40:51;6.60;91.20
5134;DHT22;2585;48.696;10.066;2023-11-21T08:43:18;6.70;91.20
5134;DHT22;2585;48.696;10.066;2023-11-21T08:45:46;6.80;91.20
5134;DHT22;2585;48.696;10.066;2023-11-21T08:48:13;6.80;91.20
5134;DHT22;2585;48.696;10.066;2023-11-21T08:50:40;6.80;91.20
5134;DHT22;2585;48.696;10.066;2023-11-21T08:53:07;6.80;91.20
5134;DHT22;2585;48.696;10.066;2023-11-21T08:55:34;6.80;91.20
5134;DHT22;2585;48.696;10.066;2023-11-21T08:58:17;6.80;91.20
5134;DHT22;2585;48.696;10.066;2023-11-21T09:00:45;6.80;91.20
5134;DHT22;2585;48.696;10.066;2023-11-21T09:03:13;6.80;91.20
5134;DHT22;2585;48.696;10.066;2023-11-21T09:05:40;6.80;91.20
5134;DHT22;2585;48.696;10.066;2023-11-21T09:08:07;6.90;91.30
5134;DHT22;2585;48.696;10.066;2023-11-21T09:10:34;6.90;91.30
5134;DHT22;2585;48.696;10.066;2023-11-21T09:13:03;7.00;91.30
5134;DHT22;2585;48.696;10.066;2023-11-21T09:15:30;6.90;91.30
5134;DHT22;2585;48.696;10.066;2023-11-21T09:17:57;7.00;91.30
5134;DHT22;2585;48.696;10.066;2023-11-21T09:20:24;7.00;91.30
5134;DHT22;2585;48.696;10.066;2023-11-21T09:22:50;7.00;91.30
5134;DHT22;2585;48.696;10.066;2023-11-21T09:25:17;7.10;91.30
5134;DHT22;2585;48.696;10.066;2023-11-21T09:27:45;7.20;91.40
5134;DHT22;2585;48.696;10.066;2023-11-21T09:30:12;7.20;91.40
5134;DHT22;2585;48.696;10.066;2023-11-21T09:32:41;7.20;91.40
5134;DHT22;2585;48.696;10.066;2023-11-21T09:35:08;7.30;91.40
5134;DHT22;2585;48.696;10.066;2023-11-21T09:37:35;7.30;91.40
5134;DHT22;2585;48.696;10.066;2023-11-21T09:40:03;7.40;91.40
5134;DHT22;2585;48.696;10.066;2023-11-21T09:42:39;7.40;91.40
5134;DHT22;2585;48.696;10.066;2023-11-21T09:45:14;7.30;91.40
5134;DHT22;2585;48.696;10.066;2023-11-21T09:47:42;7.30;91.40
5134;DHT22;2585;48.696;10.066;2023-11-21T09:50:09;7.30;91.40
5134;DHT22;2585;48.696;10.066;2023-11-21T09:55:17;7.40;91.40
5134;DHT22;2585;48.696;10.066;2023-11-21T09:57:45;7.40;91.40
5134;DHT22;2585;48.696;10.066;2023-11-21T10:00:12;7.50;91.40
5134;DHT22;2585;48.696;10.066;2023-11-21T10:02:41;7.50;91.40
5134;DHT22;2585;48.696;10.066;2023-11-21T10:05:09;7.60;91.40
5134;DHT22;2585;48.696;10.066;2023-11-21T10:07:39;7.50;91.40
5134;DHT22;2585;48.696;10.066;2023-11-21T10:10:08;7.50;91.40
5134;DHT22;2585;48.696;10.066;2023-11-21T10:12:36;7.60;91.40
5134;DHT22;2585;48.696;10.066;2023-11-21T10:15:06;7.60;91.40
5134;DHT22;2585;48.696;10.066;2023-11-21T10:17:36;7.60;91.40
5134;DHT22;2585;48.696;10.066;2023-11-21T10:20:11;7.60;91.40
5134;DHT22;2585;48.696;10.066;2023-11-21T10:22:41;7.60;91.40
5134;DHT22;2585;48.696;10.066;2023-11-21T10:25:12;7.60;91.40
5134;DHT22;2585;48.696;10.066;2023-11-21T10:27:41;7.70;91.40
5134;DHT22;2585;48.696;10.066;2023-11-21T10:30:10;7.60;91.40
5134;DHT22;2585;48.696;10.066;2023-11-21T10:32:42;7.70;91.40
5134;DHT22;2585;48.696;10.066;2023-11-21T10:35:10;7.80;91.50
5134;DHT22;2585;48.696;10.066;2023-11-21T10:37:38;7.80;91.50
5134;DHT22;2585;48.696;10.066;2023-11-21T10:40:09;7.90;91.50
5134;DHT22;2585;48.696;10.066;2023-11-21T10:42:40;7.90;91.50
5134;DHT22;2585;48.696;10.066;2023-11-21T10:45:08;8.00;91.50
5134;DHT22;2585;48.696;10.066;2023-11-21T10:47:44;8.00;91.50
5134;DHT22;2585;48.696;10.066;2023-11-21T10:50:11;8.20;91.60
5134;DHT22;2585;48.696;10.066;2023-11-21T10:52:41;8.30;91.60
5134;DHT22;2585;48.696;10.066;2023-11-21T10:55:20;8.40;91.60
5134;DHT22;2585;48.696;10.066;2023-11-21T10:57:51;8.50;91.60
5134;DHT22;2585;48.696;10.066;2023-11-21T11:00:19;8.30;91.50
5134;DHT22;2585;48.696;10.066;2023-11-21T11:02:52;8.40;91.60
5134;DHT22;2585;48.696;10.066;2023-11-21T11:05:22;8.30;91.50
5134;DHT22;2585;48.696;10.066;2023-11-21T11:08:07;8.30;91.50
5134;DHT22;2585;48.696;10.066;2023-11-21T11:10:34;8.20;91.50
5134;DHT22;2585;48.696;10.066;2023-11-21T11:13:02;8.10;91.40
5134;DHT22;2585;48.696;10.066;2023-11-21T11:15:28;8.10;91.40
5134;DHT22;2585;48.696;10.066;2023-11-21T11:17:55;8.10;91.40
5134;DHT22;2585;48.696;10.066;2023-11-21T11:20:31;8.10;91.40
5134;DHT22;2585;48.696;10.066;2023-11-21T11:23:37;8.00;91.40
5134;DHT22;2585;48.696;10.066;2023-11-21T11:26:37;8.10;91.40
5134;DHT22;2585;48.696;10.066;2023-11-21T11:35:01;8.10;91.40
5134;DHT22;2585;48.696;10.066;2023-11-21T11:37:30;8.10;91.40
5134;DHT22;2585;48.696;10.066;2023-11-21T11:39:58;8.10;91.40
5134;DHT22;2585;48.696;10.066;2023-11-21T11:42:26;8.10;91.40
5134;DHT22;2585;48.696;10.066;2023-11-21T11:44:53;8.20;91.40
5134;DHT22;2585;48.696;10.066;2023-11-21T11:47:28;8.30;91.50
5134;DHT22;2585;48.696;10.066;2023-11-21T11:50:05;8.40;91.50
5134;DHT22;2585;48.696;10.066;2023-11-21T11:52:46;9.20;91.70
5134;DHT22;2585;48.696;10.066;2023-11-21T11:55:15;10.20;91.70
5134;DHT22;2585;48.696;10.066;2023-11-21T11:57:47;10.50;91.70
5134;DHT22;2585;48.696;10.066;2023-11-21T12:02:56;11.30;91.70
5134;DHT22;2585;48.696;10.066;2023-11-21T12:05:24;11.40;91.70
5134;DHT22;2585;48.696;10.066;2023-11-21T12:07:55;10.50;91.20
5134;DHT22;2585;48.696;10.066;2023-11-21T12:10:25;10.20;91.10
5134;DHT22;2585;48.696;10.066;2023-11-21T12:15:29;9.70;91.20
5134;DHT22;2585;48.696;10.066;2023-11-21T12:17:57;9.70;91.20
5134;DHT22;2585;48.696;10.066;2023-11-21T12:20:28;9.70;91.20
5134;DHT22;2585;48.696;10.066;2023-11-21T12:22:57;9.90;91.20
5134;DHT22;2585;48.696;10.066;2023-11-21T12:25:27;10.10;91.00
5134;DHT22;2585;48.696;10.066;2023-11-21T12:28:02;9.90;91.10
5134;DHT22;2585;48.696;10.066;2023-11-21T12:30:31;9.60;90.90
5134;DHT22;2585;48.696;10.066;2023-11-21T12:32:59;9.40;90.80
5134;DHT22;2585;48.696;10.066;2023-11-21T12:35:29;9.20;90.70
5134;DHT22;2585;48.696;10.066;2023-11-21T12:37:57;9.20;90.70
5134;DHT22;2585;48.696;10.066;2023-11-21T12:40:24;9.20;90.70
5134;DHT22;2585;48.696;10.066;2023-11-21T12:42:53;9.20;90.70
5134;DHT22;2585;48.696;10.066;2023-11-21T12:45:22;9.20;90.70
5134;DHT22;2585;48.696;10.066;2023-11-21T12:47:55;9.20;90.60
5134;DHT22;2585;48.696;10.066;2023-11-21T12:50:23;9.10;90.50
5134;DHT22;2585;48.696;10.066;2023-11-21T12:52:51;9.00;90.40
5134;DHT22;2585;48.696;10.066;2023-11-21T12:55:21;9.00;90.30
5134;DHT22;2585;48.696;10.066;2023-11-21T12:57:51;9.10;90.30
5134;DHT22;2585;48.696;10.066;2023-11-21T13:00:19;9.10;90.30
5134;DHT22;2585;48.696;10.066;2023-11-21T13:02:57;9.20;90.30
5134;DHT22;2585;48.696;10.066;2023-11-21T13:05:33;9.20;90.20
5134;DHT22;2585;48.696;10.066;2023-11-21T13:08:02;9.20;90.20
5134;DHT22;2585;48.696;10.066;2023-11-21T13:10:31;9.10;90.00
5134;DHT22;2585;48.696;10.066;2023-11-21T13:12:59;9.20;90.00
5134;DHT22;2585;48.696;10.066;2023-11-21T13:15:27;9.00;89.50
5134;DHT22;2585;48.696;10.066;2023-11-21T13:17:54;9.00;89.30
5134;DHT22;2585;48.696;10.066;2023-11-21T13:20:25;9.00;89.20
5134;DHT22;2585;48.696;10.066;2023-11-21T13:22:54;8.90;89.00
5134;DHT22;2585;48.696;10.066;2023-11-21T13:25:21;8.80;88.80
5134;DHT22;2585;48.696;10.066;2023-11-21T13:27:48;8.90;88.80
5134;DHT22;2585;48.696;10.066;2023-11-21T13:30:16;8.60;88.20
5134;DHT22;2585;48.696;10.066;2023-11-21T13:32:44;8.60;88.30
5134;DHT22;2585;48.696;10.066;2023-11-21T13:35:18;8.60;88.50
5134;DHT22;2585;48.696;10.066;2023-11-21T13:37:57;8.60;88.50
5134;DHT22;2585;48.696;10.066;2023-11-21T13:40:29;8.50;88.50
5134;DHT22;2585;48.696;10.066;2023-11-21T13:42:56;8.40;88.30
5134;DHT22;2585;48.696;10.066;2023-11-21T13:45:26;8.40;88.40
5134;DHT22;2585;48.696;10.066;2023-11-21T13:47:54;8.40;88.40
5134;DHT22;2585;48.696;10.066;2023-11-21T13:50:27;8.40;88.40
5134;DHT22;2585;48.696;10.066;2023-11-21T13:53:00;8.50;88.50
5134;DHT22;2585;48.696;10.066;2023-11-21T13:55:37;8.50;88.40
5134;DHT22;2585;48.696;10.066;2023-11-21T13:58:06;8.50;88.30
5134;DHT22;2585;48.696;10.066;2023-11-21T14:00:36;8.40;88.00
5134;DHT22;2585;48.696;10.066;2023-11-21T14:03:12;8.40;88.10
5134;DHT22;2585;48.696;10.066;2023-11-21T14:05:48;8.40;88.10
5134;DHT22;2585;48.696;10.066;2023-11-21T14:08:21;8.40;88.20
5134;DHT22;2585;48.696;10.066;2023-11-21T14:10:51;8.40;88.10
5134;DHT22;2585;48.696;10.066;2023-11-21T14:13:22;8.40;88.20
5134;DHT22;2585;48.696;10.066;2023-11-21T14:15:50;8.40;88.30
5134;DHT22;2585;48.696;10.066;2023-11-21T14:18:24;8.30;88.40
5134;DHT22;2585;48.696;10.066;2023-11-21T14:21:05;8.30;88.50
5134;DHT22;2585;48.696;10.066;2023-11-21T14:23:37;8.20;88.50
5134;DHT22;2585;48.696;10.066;2023-11-21T14:26:05;8.00;88.30
5134;DHT22;2585;48.696;10.066;2023-11-21T14:28:33;8.00;88.50
5134;DHT22;2585;48.696;10.066;2023-11-21T14:31:02;8.10;88.70
5134;DHT22;2585;48.696;10.066;2023-11-21T14:33:29;8.10;88.80
5134;DHT22;2585;48.696;10.066;2023-11-21T14:35:56;8.20;88.90
5134;DHT22;2585;48.696;10.066;2023-11-21T14:38:24;8.20;89.00
5134;DHT22;2585;48.696;10.066;2023-11-21T14:40:51;8.10;88.40
5134;DHT22;2585;48.696;10.066;2023-11-21T14:43:17;8.00;88.30
5134;DHT22;2585;48.696;10.066;2023-11-21T14:45:45;7.90;88.10
5134;DHT22;2585;48.696;10.066;2023-11-21T14:48:12;8.00;88.20
5134;DHT22;2585;48.696;10.066;2023-11-21T14:50:58;8.00;88.20
5134;DHT22;2585;48.696;10.066;2023-11-21T14:53:30;7.90;88.20
5134;DHT22;2585;48.696;10.066;2023-11-21T14:56:10;7.90;88.30
5134;DHT22;2585;48.696;10.066;2023-11-21T14:58:37;7.90;88.50
5134;DHT22;2585;48.696;10.066;2023-11-21T15:01:06;7.90;88.60
5134;DHT22;2585;48.696;10.066;2023-11-21T15:03:34;7.80;88.60
5134;DHT22;2585;48.696;10.066;2023-11-21T15:06:10;7.90;88.80
5134;DHT22;2585;48.696;10.066;2023-11-21T15:08:57;7.80;88.90
5134;DHT22;2585;48.696;10.066;2023-11-21T15:11:36;7.80;88.90
5134;DHT22;2585;48.696;10.066;2023-11-21T15:14:05;7.70;88.90
5134;DHT22;2585;48.696;10.066;2023-11-21T15:16:37;7.70;89.00
5134;DHT22;2585;48.696;10.066;2023-11-21T15:19:08;7.70;89.10
5134;DHT22;2585;48.696;10.066;2023-11-21T15:21:36;7.70;89.20
5134;DHT22;2585;48.696;10.066;2023-11-21T15:24:03;7.70;89.40
5134;DHT22;2585;48.696;10.066;2023-11-21T15:26:30;7.70;89.50
5134;DHT22;2585;48.696;10.066;2023-11-21T15:28:57;7.60;89.50
5134;DHT22;2585;48.696;10.066;2023-11-21T15:31:24;7.60;89.50
5134;DHT22;2585;48.696;10.066;2023-11-21T15:33:52;7.60;89.50
5134;DHT22;2585;48.696;10.066;2023-11-21T15:36:26;7.60;89.50
5134;DHT22;2585;48.696;10.066;2023-11-21T15:38:53;7.50;89.40
5134;DHT22;2585;48.696;10.066;2023-11-21T15:41:20;7.50;89.50
5134;DHT22;2585;48.696;10.066;2023-11-21T15:43:48;7.50;89.60
5134;DHT22;2585;48.696;10.066;2023-11-21T15:46:16;7.50;89.70
5134;DHT22;2585;48.696;10.066;2023-11-21T15:48:43;7.50;89.70
5134;DHT22;2585;48.696;10.066;2023-11-21T15:51:16;7.50;89.70
5134;DHT22;2585;48.696;10.066;2023-11-21T15:53:44;7.40;89.70
5134;DHT22;2585;48.696;10.066;2023-11-21T15:56:11;7.40;89.70
5134;DHT22;2585;48.696;10.066;2023-11-21T15:58:39;7.40;89.80
5134;DHT22;2585;48.696;10.066;2023-11-21T16:01:09;7.40;89.90
5134;DHT22;2585;48.696;10.066;2023-11-21T16:03:37;7.30;89.90
5134;DHT22;2585;48.696;10.066;2023-11-21T16:06:05;7.40;90.00
5134;DHT22;2585;48.696;10.066;2023-11-21T16:08:32;7.40;90.00
5134;DHT22;2585;48.696;10.066;2023-11-21T16:10:59;7.40;90.00
5134;DHT22;2585;48.696;10.066;2023-11-21T16:13:26;7.40;90.10
5134;DHT22;2585;48.696;10.066;2023-11-21T16:15:53;7.30;90.10
5134;DHT22;2585;48.696;10.066;2023-11-21T16:18:21;7.30;90.10
5134;DHT22;2585;48.696;10.066;2023-11-21T16:20:48;7.10;89.90
5134;DHT22;2585;48.696;10.066;2023-11-21T16:23:17;7.20;90.00
5134;DHT22;2585;48.696;10.066;2023-11-21T16:25:43;7.00;89.80
5134;DHT22;2585;48.696;10.066;2023-11-21T16:28:10;7.00;89.80